Time;durP1;ratioP1;P1;durP2;ratioP2;P2;SDS_P1;SDS_P2;PMS_P1;PMS_P2;Temp;Humidity;BMP_temperature;BMP_pressure;BME280_temperature;BME280_humidity;BME280_pressure;Samples;Min_cycle;Max_cycle;Signal;HPM_P1;HPM_P2
2022/02/10 00:03:28;;;;;;;21.10;15.03;;;;;;;;;;808995;71;26270;-80
2022/02/10 00:05:47;;;;;;;20.90;15.23;;;;;;;;;;833634;71;26227;-83
2022/02/10 00:06:41;;;;;;;21.50;14.55;;;;;;;;;;833793;71;26275;-83
2022/02/10 00:08:08;;;;;;;21.00;14.07;;;;;;;;;;833824;71;26749;-83
2022/02/10 00:15:50;;;;;;;21.93;14.28;;;;;;;;;;834286;71;26974;-81
2022/02/10 00:17:07;;;;;;;19.75;12.53;;;;;;;;;;832942;71;27220;-81
2022/02/10 00:21:51;;;;;;;18.42;12.80;;;;;;;;;;781055;76;26351;-81
2022/02/10 00:24:31;;;;;;;17.40;12.28;;;;;;;;;;833806;71;26262;-82
2022/02/10 00:26:01;;;;;;;16.97;12.88;;;;;;;;;;833646;71;26363;-80
2022/02/10 00:34:35;;;;;;;11.30;10.10;;;;;;;;;;833626;71;26258;-82
2022/02/10 00:35:47;;;;;;;11.93;10.55;;;;;;;;;;833541;71;26684;-83
2022/02/10 00:36:53;;;;;;;12.68;9.95;;;;;;;;;;831913;71;26297;-82
2022/02/10 00:37:59;;;;;;;11.10;9.90;;;;;;;;;;831671;71;26327;-83
2022/02/10 00:39:17;;;;;;;12.50;10.60;;;;;;;;;;833598;71;26272;-80
2022/02/10 00:41:11;;;;;;;13.22;11.53;;;;;;;;;;833543;71;26321;-81
2022/02/10 00:42:14;;;;;;;13.53;10.95;;;;;;;;;;833588;71;26703;-82
2022/02/10 00:43:16;;;;;;;13.13;11.70;;;;;;;;;;833550;71;26980;-80
2022/02/10 00:44:19;;;;;;;14.13;12.43;;;;;;;;;;833532;71;26387;-81
2022/02/10 00:45:25;;;;;;;14.80;11.93;;;;;;;;;;833617;71;26305;-80
2022/02/10 00:46:28;;;;;;;15.10;12.35;;;;;;;;;;833578;71;24341;-83
2022/02/10 00:47:41;;;;;;;20.50;15.58;;;;;;;;;;833587;71;26295;-82
2022/02/10 00:48:35;;;;;;;24.77;16.45;;;;;;;;;;833501;71;26343;-82
2022/02/10 00:49:38;;;;;;;27.30;18.95;;;;;;;;;;833519;71;26333;-82
2022/02/10 00:50:42;;;;;;;38.42;23.75;;;;;;;;;;833631;71;26779;-82
2022/02/10 00:51:46;;;;;;;41.05;25.70;;;;;;;;;;833511;71;26324;-83
2022/02/10 00:52:52;;;;;;;41.83;28.25;;;;;;;;;;833576;71;26278;-82
2022/02/10 00:53:53;;;;;;;41.33;26.93;;;;;;;;;;833543;71;26359;-83
2022/02/10 00:54:56;;;;;;;47.08;29.48;;;;;;;;;;833512;71;26791;-84
2022/02/10 00:55:59;;;;;;;53.55;32.17;;;;;;;;;;833617;71;26266;-81
2022/02/10 00:57:06;;;;;;;51.63;31.48;;;;;;;;;;833618;71;26347;-84
2022/02/10 00:58:09;;;;;;;46.83;31.62;;;;;;;;;;834100;71;26616;-82
2022/02/10 00:59:22;;;;;;;48.50;30.57;;;;;;;;;;834529;71;26261;-82
2022/02/10 01:07:12;;;;;;;45.63;28.12;;;;;;;;;;833369;71;26293;-82
2022/02/10 01:11:10;;;;;;;40.05;28.32;;;;;;;;;;833396;71;26339;-83
2022/02/10 01:30:08;;;;;;;33.42;23.77;;;;;;;;;;833428;71;24762;-83
2022/02/10 01:31:11;;;;;;;33.80;24.23;;;;;;;;;;833385;71;26273;-81
2022/02/10 01:32:15;;;;;;;33.92;22.82;;;;;;;;;;833463;71;26843;-81
2022/02/10 01:33:19;;;;;;;36.77;24.27;;;;;;;;;;833432;71;26773;-83
2022/02/10 01:34:22;;;;;;;35.23;23.25;;;;;;;;;;833344;71;26282;-83
2022/02/10 01:35:26;;;;;;;32.53;22.60;;;;;;;;;;833427;71;26335;-83
2022/02/10 01:36:30;;;;;;;30.92;22.67;;;;;;;;;;833330;71;26779;-81
2022/02/10 01:37:35;;;;;;;34.60;22.60;;;;;;;;;;833448;71;26274;-82
2022/02/10 01:38:37;;;;;;;34.27;22.75;;;;;;;;;;833403;71;26800;-83
2022/02/10 01:39:46;;;;;;;33.70;22.48;;;;;;;;;;833577;71;26352;-83
2022/02/10 01:57:51;;;;;;;31.35;22.27;;;;;;;;;;779672;75;26368;-82
2022/02/10 02:04:12;;;;;;;30.27;20.72;;;;;;;;;;834405;71;26297;-80
2022/02/10 02:05:25;;;;;;;29.18;19.57;;;;;;;;;;834466;71;26214;-82
2022/02/10 02:06:27;;;;;;;27.48;20.05;;;;;;;;;;832573;71;26218;-82
2022/02/10 02:07:29;;;;;;;30.35;20.97;;;;;;;;;;832749;71;26820;-81
2022/02/10 02:08:30;;;;;;;27.90;20.35;;;;;;;;;;834399;71;26199;-82
2022/02/10 02:09:34;;;;;;;28.75;20.08;;;;;;;;;;834365;71;26339;-81
2022/02/10 02:10:37;;;;;;;29.20;20.27;;;;;;;;;;834379;71;26262;-81
2022/02/10 02:11:40;;;;;;;27.25;20.12;;;;;;;;;;834452;71;26313;-83
2022/02/10 02:12:44;;;;;;;25.95;19.55;;;;;;;;;;834529;71;26304;-80
2022/02/10 02:13:47;;;;;;;27.77;21.05;;;;;;;;;;834084;71;26219;-82
2022/02/10 02:14:50;;;;;;;29.60;19.82;;;;;;;;;;834179;71;26207;-83
2022/02/10 02:15:52;;;;;;;24.18;19.30;;;;;;;;;;834295;71;26215;-82
2022/02/10 02:16:56;;;;;;;23.83;19.25;;;;;;;;;;834430;71;26237;-83
2022/02/10 02:17:59;;;;;;;26.40;19.98;;;;;;;;;;834599;71;26219;-85
2022/02/10 02:19:02;;;;;;;26.07;19.62;;;;;;;;;;834651;71;27010;-82
2022/02/10 02:20:05;;;;;;;29.32;19.45;;;;;;;;;;834710;71;26274;-83
2022/02/10 02:21:09;;;;;;;26.95;19.20;;;;;;;;;;835085;71;26256;-82
2022/02/10 02:22:13;;;;;;;27.27;19.45;;;;;;;;;;835217;71;26200;-82
2022/02/10 02:23:17;;;;;;;29.42;20.23;;;;;;;;;;834729;71;26290;-79
2022/02/10 02:24:20;;;;;;;28.45;19.35;;;;;;;;;;834504;71;26421;-79
2022/02/10 02:25:23;;;;;;;23.80;17.85;;;;;;;;;;834623;71;26266;-82
2022/02/10 02:26:27;;;;;;;26.33;19.55;;;;;;;;;;834407;71;26285;-81
2022/02/10 02:27:31;;;;;;;23.52;17.80;;;;;;;;;;834511;71;26258;-81
2022/02/10 02:28:38;;;;;;;26.73;18.10;;;;;;;;;;832513;71;24606;-81
2022/02/10 02:29:41;;;;;;;25.37;18.07;;;;;;;;;;834733;71;26258;-82
2022/02/10 02:30:54;;;;;;;23.95;18.32;;;;;;;;;;834877;71;26308;-81
2022/02/10 02:32:05;;;;;;;24.85;18.10;;;;;;;;;;834045;71;26266;-84
2022/02/10 02:36:12;;;;;;;22.55;16.52;;;;;;;;;;834277;71;26263;-79
2022/02/10 03:04:37;;;;;;;19.70;14.78;;;;;;;;;;833750;71;26254;-84
2022/02/10 03:05:27;;;;;;;21.05;15.13;;;;;;;;;;833719;70;26207;-83
2022/02/10 03:06:30;;;;;;;17.80;15.25;;;;;;;;;;831652;70;26264;-85
2022/02/10 03:08:42;;;;;;;22.58;16.20;;;;;;;;;;778498;74;27340;-84
2022/02/10 03:09:43;;;;;;;22.13;16.73;;;;;;;;;;813674;70;26239;-83
2022/02/10 03:11:50;;;;;;;21.62;15.40;;;;;;;;;;834141;70;26347;-83
2022/02/10 03:12:53;;;;;;;20.82;16.25;;;;;;;;;;834022;70;26321;-83
2022/02/10 03:14:05;;;;;;;22.37;16.95;;;;;;;;;;834074;70;26230;-86
2022/02/10 03:15:06;;;;;;;26.35;16.97;;;;;;;;;;833967;70;26286;-83
2022/02/10 03:17:42;;;;;;;24.92;16.15;;;;;;;;;;778399;76;26297;-84
2022/02/10 03:22:38;;;;;;;23.20;16.20;;;;;;;;;;834256;70;26331;-83
2022/02/10 04:02:51;;;;;;;12.03;9.30;;;;;;;;;;832845;71;26312;-82
2022/02/10 04:04:57;;;;;;;12.33;9.28;;;;;;;;;;833662;71;26219;-85
2022/02/10 04:08:30;;;;;;;11.83;9.33;;;;;;;;;;818388;72;26242;-82
2022/02/10 04:12:00;;;;;;;13.58;10.03;;;;;;;;;;824186;71;26215;-81
2022/02/10 04:15:30;;;;;;;12.47;10.40;;;;;;;;;;833554;71;26331;-82
2022/02/10 04:16:29;;;;;;;11.35;9.45;;;;;;;;;;833674;71;26294;-84
2022/02/10 04:22:44;;;;;;;13.25;10.40;;;;;;;;;;833255;71;26989;-81
2022/02/10 04:25:03;;;;;;;13.05;11.20;;;;;;;;;;833688;71;26343;-80
2022/02/10 04:27:14;;;;;;;13.60;10.45;;;;;;;;;;833541;71;26215;-83
2022/02/10 04:28:45;;;;;;;13.38;10.00;;;;;;;;;;833402;71;26277;-82
2022/02/10 04:38:51;;;;;;;12.65;10.43;;;;;;;;;;833483;71;26338;-82
2022/02/10 04:44:07;;;;;;;12.20;10.08;;;;;;;;;;833383;71;24674;-81
2022/02/10 04:59:16;;;;;;;14.03;10.00;;;;;;;;;;833847;71;26316;-82
2022/02/10 05:00:21;;;;;;;14.73;11.53;;;;;;;;;;830143;71;26655;-84
2022/02/10 05:18:36;;;;;;;15.35;10.70;;;;;;;;;;833605;71;24771;-83
2022/02/10 05:23:31;;;;;;;14.03;10.90;;;;;;;;;;834237;71;26645;-79
2022/02/10 05:31:34;;;;;;;17.48;11.30;;;;;;;;;;833379;71;26259;-78
2022/02/10 05:33:42;;;;;;;13.32;11.22;;;;;;;;;;779463;75;26344;-78
2022/02/10 05:34:45;;;;;;;13.55;11.50;;;;;;;;;;805997;71;26951;-79
2022/02/10 05:35:52;;;;;;;15.20;11.60;;;;;;;;;;832772;71;26242;-79
2022/02/10 05:36:48;;;;;;;13.62;11.43;;;;;;;;;;831738;71;26668;-79
2022/02/10 05:37:59;;;;;;;14.53;11.68;;;;;;;;;;832308;71;26320;-81
2022/02/10 05:39:08;;;;;;;16.25;12.10;;;;;;;;;;833012;71;24862;-81
2022/02/10 05:40:05;;;;;;;21.95;15.35;;;;;;;;;;833013;71;26826;-78
2022/02/10 05:44:53;;;;;;;18.05;12.50;;;;;;;;;;833523;71;26329;-76
2022/02/10 05:54:48;;;;;;;15.75;12.85;;;;;;;;;;833496;71;26700;-79
2022/02/10 05:56:00;;;;;;;15.30;12.68;;;;;;;;;;832110;71;26405;-78
2022/02/10 05:57:07;;;;;;;16.80;13.03;;;;;;;;;;831378;71;24728;-75
2022/02/10 06:49:12;;;;;;;31.30;21.97;;;;;;;;;;778871;75;26471;-81
2022/02/10 06:53:36;;;;;;;29.70;22.60;;;;;;;;;;833144;71;26290;-79
2022/02/10 07:12:19;;;;;;;29.35;22.87;;;;;;;;;;776743;76;26309;-82
2022/02/10 07:16:10;;;;;;;30.02;24.80;;;;;;;;;;832011;71;26355;-83
2022/02/10 07:54:32;;;;;;;22.85;20.45;;;;;;;;;;831969;71;26214;-86
2022/02/10 07:58:05;;;;;;;23.25;19.40;;;;;;;;;;832078;71;26310;-85
2022/02/10 08:00:18;;;;;;;22.52;19.12;;;;;;;;;;832896;71;26293;-83
2022/02/10 08:53:21;;;;;;;28.42;24.07;;;;;;;;;;833690;71;26289;-83
2022/02/10 09:02:55;;;;;;;27.07;24.27;;;;;;;;;;833703;71;26942;-82
2022/02/10 09:20:05;;;;;;;23.87;21.42;;;;;;;;;;833606;71;26332;-86
2022/02/10 09:21:16;;;;;;;25.02;21.90;;;;;;;;;;828695;71;26269;-85
2022/02/10 09:55:19;;;;;;;26.12;22.52;;;;;;;;;;808725;73;26238;-85
2022/02/10 09:57:21;;;;;;;25.72;22.32;;;;;;;;;;808712;73;26889;-84
2022/02/10 10:01:47;;;;;;;23.50;20.82;;;;;;;;;;834098;71;26743;-83
2022/02/10 10:02:58;;;;;;;23.67;21.23;;;;;;;;;;833231;71;26290;-86
2022/02/10 10:04:02;;;;;;;24.55;21.42;;;;;;;;;;832828;71;26391;-82
2022/02/10 10:05:20;;;;;;;23.50;21.05;;;;;;;;;;832914;71;26282;-82
2022/02/10 10:06:18;;;;;;;25.72;22.80;;;;;;;;;;831446;71;26219;-83
2022/02/10 10:08:36;;;;;;;24.30;21.65;;;;;;;;;;832965;71;26238;-83
2022/02/10 10:09:43;;;;;;;25.25;22.60;;;;;;;;;;830825;71;26363;-82
2022/02/10 10:11:01;;;;;;;29.07;24.52;;;;;;;;;;832477;71;26737;-82
2022/02/10 10:14:20;;;;;;;199.97;112.85;;;;;;;;;;776901;76;26361;-84
2022/02/10 10:14:36;;;;;;;495.73;322.52;;;;;;;;;;788832;71;26291;-84
2022/02/10 10:22:46;;;;;;;381.93;221.82;;;;;;;;;;832196;71;26343;-84
2022/02/10 10:25:37;;;;;;;132.15;81.28;;;;;;;;;;831966;71;26756;-84
2022/02/10 10:45:05;;;;;;;25.35;22.75;;;;;;;;;;794639;72;26586;-85
2022/02/10 10:49:08;;;;;;;26.77;23.10;;;;;;;;;;793288;74;26323;-78
2022/02/10 10:49:46;;;;;;;26.95;22.20;;;;;;;;;;789197;74;26381;-79
2022/02/10 10:50:33;;;;;;;29.20;23.38;;;;;;;;;;806485;71;26344;-79
2022/02/10 10:52:01;;;;;;;25.02;22.37;;;;;;;;;;831955;71;26359;-80
2022/02/10 10:53:03;;;;;;;27.77;24.60;;;;;;;;;;829779;71;26305;-80
2022/02/10 10:54:40;;;;;;;30.97;24.60;;;;;;;;;;830037;71;26328;-82
2022/02/10 10:56:24;;;;;;;27.77;24.00;;;;;;;;;;831927;71;26729;-81
2022/02/10 10:57:27;;;;;;;29.35;24.98;;;;;;;;;;831882;71;26680;-78
2022/02/10 10:58:44;;;;;;;29.20;26.05;;;;;;;;;;831489;71;26351;-80
2022/02/10 11:00:05;;;;;;;27.87;23.85;;;;;;;;;;830181;71;26632;-79
2022/02/10 11:03:44;;;;;;;28.05;23.38;;;;;;;;;;831938;71;26351;-80
2022/02/10 11:06:32;;;;;;;27.25;23.35;;;;;;;;;;829759;71;26425;-80
2022/02/10 11:22:08;;;;;;;27.62;24.67;;;;;;;;;;832021;71;26265;-78
2022/02/10 11:23:01;;;;;;;28.27;25.08;;;;;;;;;;832103;71;26262;-83
2022/02/10 11:37:40;;;;;;;31.60;28.15;;;;;;;;;;832394;71;26211;-83
2022/02/10 11:38:48;;;;;;;33.05;28.67;;;;;;;;;;832145;71;26219;-81
2022/02/10 11:40:06;;;;;;;35.52;28.55;;;;;;;;;;832369;71;26795;-82
2022/02/10 11:42:43;;;;;;;32.23;28.02;;;;;;;;;;832736;71;26545;-82
2022/02/10 12:01:55;;;;;;;35.40;28.83;;;;;;;;;;832135;71;26356;-85
2022/02/10 12:32:26;;;;;;;33.38;28.80;;;;;;;;;;789897;75;26297;-83
2022/02/10 13:23:21;;;;;;;38.17;29.75;;;;;;;;;;833334;71;26277;-84
2022/02/10 13:25:50;;;;;;;32.50;26.30;;;;;;;;;;832200;71;26211;-83
2022/02/10 14:12:51;;;;;;;37.88;29.12;;;;;;;;;;835241;71;26250;-83
2022/02/10 14:13:58;;;;;;;37.03;29.65;;;;;;;;;;834422;71;26360;-84
2022/02/10 14:15:13;;;;;;;37.65;29.72;;;;;;;;;;832833;71;26278;-84
2022/02/10 14:16:28;;;;;;;40.10;29.02;;;;;;;;;;833061;71;26223;-84
2022/02/10 14:17:27;;;;;;;36.17;28.52;;;;;;;;;;831514;71;24340;-84
2022/02/10 14:18:25;;;;;;;38.48;28.83;;;;;;;;;;832268;71;26298;-83
2022/02/10 14:19:37;;;;;;;35.08;27.45;;;;;;;;;;834487;71;26292;-83
2022/02/10 14:23:04;;;;;;;40.75;27.52;;;;;;;;;;834649;71;26257;-82
2022/02/10 14:25:49;;;;;;;36.55;28.25;;;;;;;;;;834404;71;26213;-83
2022/02/10 14:26:49;;;;;;;41.08;30.95;;;;;;;;;;834406;71;26475;-83
2022/02/10 14:27:52;;;;;;;41.63;31.37;;;;;;;;;;834484;71;26681;-83
2022/02/10 14:28:55;;;;;;;37.58;29.42;;;;;;;;;;834546;71;26274;-82
2022/02/10 14:29:58;;;;;;;41.25;32.17;;;;;;;;;;834776;71;26353;-83
2022/02/10 14:31:21;;;;;;;40.48;31.17;;;;;;;;;;834313;71;26763;-83
2022/02/10 14:32:28;;;;;;;38.42;31.10;;;;;;;;;;834412;71;26250;-83
2022/02/10 14:33:32;;;;;;;43.75;32.33;;;;;;;;;;834200;71;26339;-84
2022/02/10 14:34:34;;;;;;;45.25;32.00;;;;;;;;;;834601;71;26203;-85
2022/02/10 14:37:54;;;;;;;43.68;30.17;;;;;;;;;;790177;75;26374;-82
2022/02/10 15:21:06;;;;;;;45.38;32.08;;;;;;;;;;808965;73;26529;-83
2022/02/10 15:35:50;;;;;;;51.88;30.50;;;;;;;;;;809010;73;26298;-81
2022/02/10 15:45:59;;;;;;;40.73;29.40;;;;;;;;;;809188;73;26750;-80
2022/02/10 15:48:41;;;;;;;44.60;28.75;;;;;;;;;;808514;73;26401;-80
2022/02/10 15:56:42;;;;;;;48.00;31.15;;;;;;;;;;808563;73;26225;-81
2022/02/10 16:11:01;;;;;;;42.58;28.90;;;;;;;;;;808632;73;26358;-81
2022/02/10 16:16:36;;;;;;;42.48;26.45;;;;;;;;;;808626;73;26308;-81
2022/02/10 16:17:54;;;;;;;41.63;26.80;;;;;;;;;;809515;73;27202;-82
2022/02/10 16:18:58;;;;;;;37.83;27.17;;;;;;;;;;809182;72;26310;-81
2022/02/10 16:20:07;;;;;;;37.83;27.50;;;;;;;;;;800395;74;26320;-79
2022/02/10 16:21:04;;;;;;;39.98;25.68;;;;;;;;;;799043;74;26295;-83
2022/02/10 16:22:22;;;;;;;35.17;23.98;;;;;;;;;;795041;74;26283;-83
2022/02/10 16:23:16;;;;;;;36.80;25.30;;;;;;;;;;793709;74;26283;-82
2022/02/10 16:24:29;;;;;;;43.10;26.17;;;;;;;;;;808790;72;26590;-81
2022/02/10 16:25:25;;;;;;;39.10;25.45;;;;;;;;;;809677;72;26273;-82
2022/02/10 16:26:54;;;;;;;39.08;25.40;;;;;;;;;;807713;72;26300;-83
2022/02/10 16:27:50;;;;;;;35.63;24.12;;;;;;;;;;809087;72;26306;-82
2022/02/10 16:28:47;;;;;;;37.33;24.55;;;;;;;;;;809386;72;26292;-80
2022/02/10 16:29:56;;;;;;;37.95;24.90;;;;;;;;;;809001;73;26284;-84
2022/02/10 16:30:55;;;;;;;39.20;26.27;;;;;;;;;;809095;72;26345;-81
2022/02/10 16:31:58;;;;;;;40.75;25.65;;;;;;;;;;794823;74;26228;-83
2022/02/10 16:33:02;;;;;;;33.98;24.95;;;;;;;;;;794494;74;26282;-82
2022/02/10 16:34:07;;;;;;;42.45;27.70;;;;;;;;;;794993;74;26371;-81
2022/02/10 16:35:10;;;;;;;51.23;31.80;;;;;;;;;;808962;73;26765;-81
2022/02/10 16:36:16;;;;;;;53.33;31.70;;;;;;;;;;808948;73;26390;-85
2022/02/10 16:37:17;;;;;;;41.95;28.75;;;;;;;;;;809088;72;26340;-82
2022/02/10 16:38:20;;;;;;;44.30;26.93;;;;;;;;;;808995;73;26524;-83
2022/02/10 16:39:23;;;;;;;42.70;27.80;;;;;;;;;;809071;73;26307;-82
2022/02/10 16:40:26;;;;;;;42.03;26.20;;;;;;;;;;809026;73;26259;-82
2022/02/10 16:41:30;;;;;;;36.88;24.15;;;;;;;;;;808972;73;26314;-80
2022/02/10 16:42:34;;;;;;;33.33;24.85;;;;;;;;;;809786;73;26277;-79
2022/02/10 16:43:37;;;;;;;38.33;24.85;;;;;;;;;;809797;73;26276;-82
2022/02/10 16:44:41;;;;;;;38.58;25.92;;;;;;;;;;809807;73;26450;-80
2022/02/10 16:45:46;;;;;;;38.80;24.75;;;;;;;;;;809602;72;26288;-82
2022/02/10 16:46:48;;;;;;;35.75;25.12;;;;;;;;;;809523;73;26322;-81
2022/02/10 16:47:52;;;;;;;31.42;23.60;;;;;;;;;;809138;73;26804;-81
2022/02/10 16:48:56;;;;;;;37.58;24.07;;;;;;;;;;809133;73;26230;-78
2022/02/10 16:50:00;;;;;;;37.05;23.67;;;;;;;;;;809284;72;26283;-79
2022/02/10 16:51:10;;;;;;;30.48;23.65;;;;;;;;;;794852;74;26260;-80
2022/02/10 16:52:10;;;;;;;37.65;23.90;;;;;;;;;;794645;74;26753;-81
2022/02/10 16:53:16;;;;;;;38.58;23.77;;;;;;;;;;794682;74;26639;-79
2022/02/10 16:54:36;;;;;;;33.78;23.65;;;;;;;;;;807733;73;26287;-79
2022/02/10 16:57:07;;;;;;;42.40;25.37;;;;;;;;;;773866;76;26305;-80
2022/02/10 16:58:23;;;;;;;39.67;23.95;;;;;;;;;;773066;75;27076;-83
2022/02/10 16:59:42;;;;;;;35.78;25.05;;;;;;;;;;779192;72;26923;-81
2022/02/10 17:03:18;;;;;;;38.65;26.57;;;;;;;;;;809247;73;26311;-84
2022/02/10 17:05:49;;;;;;;41.80;27.05;;;;;;;;;;809161;73;26337;-82
2022/02/10 17:19:29;;;;;;;60.40;36.20;;;;;;;;;;809119;73;26835;-84
2022/02/10 17:20:42;;;;;;;56.92;35.10;;;;;;;;;;810049;72;26875;-84
2022/02/10 17:25:37;;;;;;;39.15;23.98;;;;;;;;;;807484;73;26314;-83
2022/02/10 17:27:02;;;;;;;36.05;23.67;;;;;;;;;;807561;73;26291;-82
2022/02/10 17:27:55;;;;;;;35.25;23.67;;;;;;;;;;806682;73;26380;-81
2022/02/10 17:28:56;;;;;;;38.78;24.80;;;;;;;;;;803351;73;26388;-81
2022/02/10 17:30:34;;;;;;;38.17;26.62;;;;;;;;;;807526;73;26432;-83
2022/02/10 17:33:24;;;;;;;48.85;34.15;;;;;;;;;;767147;77;26799;-82
2022/02/10 17:41:27;;;;;;;42.27;28.65;;;;;;;;;;801150;73;26323;-84
2022/02/10 17:53:21;;;;;;;55.95;36.68;;;;;;;;;;806368;73;26301;-82
2022/02/10 17:54:14;;;;;;;53.90;35.33;;;;;;;;;;805892;73;26308;-84
2022/02/10 17:55:18;;;;;;;53.00;34.60;;;;;;;;;;806385;73;26736;-83
2022/02/10 17:56:21;;;;;;;49.48;33.53;;;;;;;;;;806311;73;26288;-82
2022/02/10 17:57:25;;;;;;;45.73;31.85;;;;;;;;;;806322;73;26323;-83
2022/02/10 17:58:28;;;;;;;60.78;33.33;;;;;;;;;;806324;73;26297;-84
2022/02/10 17:59:33;;;;;;;49.98;30.80;;;;;;;;;;806409;73;26265;-82
2022/02/10 18:00:35;;;;;;;51.42;31.75;;;;;;;;;;806394;73;26291;-83
2022/02/10 18:01:38;;;;;;;54.45;34.15;;;;;;;;;;806252;73;26303;-82
2022/02/10 18:02:42;;;;;;;56.63;35.48;;;;;;;;;;805732;73;26228;-82
2022/02/10 18:03:47;;;;;;;59.58;36.93;;;;;;;;;;806726;73;26311;-81
2022/02/10 18:04:50;;;;;;;56.13;35.38;;;;;;;;;;806471;73;26358;-81
2022/02/10 18:07:04;;;;;;;59.60;34.35;;;;;;;;;;807073;73;26294;-84
2022/02/10 18:08:13;;;;;;;52.78;31.73;;;;;;;;;;806232;73;26361;-82
2022/02/10 18:12:50;;;;;;;49.50;29.77;;;;;;;;;;806168;73;26357;-83
2022/02/10 18:13:24;;;;;;;50.25;30.27;;;;;;;;;;805806;73;26242;-82
2022/02/10 18:14:28;;;;;;;45.67;27.80;;;;;;;;;;806120;73;26296;-82
2022/02/10 18:15:34;;;;;;;49.38;28.83;;;;;;;;;;805920;73;26284;-84
2022/02/10 18:16:46;;;;;;;44.67;28.90;;;;;;;;;;805418;73;24385;-83
2022/02/10 18:17:58;;;;;;;44.45;28.77;;;;;;;;;;805888;73;26815;-83
2022/02/10 18:18:58;;;;;;;45.25;29.30;;;;;;;;;;805924;73;26282;-86
2022/02/10 18:20:03;;;;;;;48.00;32.98;;;;;;;;;;805693;73;26354;-83
2022/02/10 18:21:28;;;;;;;60.08;35.78;;;;;;;;;;806357;73;26253;-85
2022/02/10 18:23:34;;;;;;;58.95;33.80;;;;;;;;;;807093;73;26235;-83
2022/02/10 18:25:59;;;;;;;59.75;35.03;;;;;;;;;;806820;73;26311;-84
2022/02/10 18:30:38;;;;;;;62.40;38.83;;;;;;;;;;801264;73;26389;-84
2022/02/10 19:06:43;;;;;;;61.50;37.75;;;;;;;;;;806058;73;26361;-83
2022/02/10 19:07:04;;;;;;;63.17;39.45;;;;;;;;;;780753;73;26308;-84
2022/02/10 19:09:32;;;;;;;65.12;42.45;;;;;;;;;;806242;73;27015;-83
2022/02/10 19:10:28;;;;;;;62.00;41.20;;;;;;;;;;803915;73;27238;-84
2022/02/10 19:11:30;;;;;;;60.88;41.88;;;;;;;;;;806264;73;26353;-83
2022/02/10 19:12:43;;;;;;;64.12;43.33;;;;;;;;;;806701;73;26337;-87
2022/02/10 19:13:39;;;;;;;64.70;42.78;;;;;;;;;;806215;73;26663;-83
2022/02/10 19:14:46;;;;;;;60.48;42.60;;;;;;;;;;799994;73;26493;-85
2022/02/10 19:15:46;;;;;;;59.65;40.50;;;;;;;;;;830968;71;26262;-84
2022/02/10 19:16:49;;;;;;;61.33;39.98;;;;;;;;;;832765;71;26311;-82
2022/02/10 19:17:52;;;;;;;63.05;42.40;;;;;;;;;;832654;71;26206;-85
2022/02/10 19:18:55;;;;;;;59.98;39.80;;;;;;;;;;832732;71;26273;-85
2022/02/10 19:19:58;;;;;;;62.67;40.00;;;;;;;;;;832395;71;26359;-82
2022/02/10 19:21:03;;;;;;;59.00;40.05;;;;;;;;;;832151;71;26336;-84
2022/02/10 19:22:05;;;;;;;61.68;40.20;;;;;;;;;;832273;71;26331;-84
2022/02/10 19:23:08;;;;;;;54.90;37.95;;;;;;;;;;832375;71;26278;-84
2022/02/10 19:24:11;;;;;;;65.17;40.40;;;;;;;;;;832252;71;26860;-85
2022/02/10 19:25:14;;;;;;;62.25;40.08;;;;;;;;;;832890;71;26344;-83
2022/02/10 19:26:17;;;;;;;61.83;40.12;;;;;;;;;;832631;71;26270;-84
2022/02/10 19:27:20;;;;;;;55.33;40.63;;;;;;;;;;832834;71;26256;-85
2022/02/10 19:28:23;;;;;;;58.83;39.65;;;;;;;;;;833838;71;26254;-83
2022/02/10 19:29:26;;;;;;;58.83;41.20;;;;;;;;;;833903;71;26223;-85
2022/02/10 19:30:30;;;;;;;63.52;40.80;;;;;;;;;;834118;71;26238;-82
2022/02/10 19:31:36;;;;;;;58.63;38.58;;;;;;;;;;833834;71;26282;-82
2022/02/10 19:32:41;;;;;;;57.48;39.33;;;;;;;;;;833920;71;26257;-84
2022/02/10 19:33:44;;;;;;;59.70;38.40;;;;;;;;;;833766;71;26316;-83
2022/02/10 19:34:48;;;;;;;59.98;38.50;;;;;;;;;;833768;71;26323;-83
2022/02/10 19:35:53;;;;;;;60.23;38.70;;;;;;;;;;833204;71;26357;-85
2022/02/10 19:36:56;;;;;;;55.33;38.58;;;;;;;;;;834682;70;26219;-83
2022/02/10 19:38:01;;;;;;;75.40;47.08;;;;;;;;;;833955;71;26191;-85
2022/02/10 19:39:04;;;;;;;80.55;50.17;;;;;;;;;;834303;70;26245;-85
2022/02/10 19:40:08;;;;;;;73.05;45.30;;;;;;;;;;834357;70;26237;-86
2022/02/10 19:41:11;;;;;;;65.95;43.52;;;;;;;;;;834510;71;26203;-83
2022/02/10 19:42:15;;;;;;;63.52;41.53;;;;;;;;;;828683;70;26329;-84
2022/02/10 19:43:20;;;;;;;59.83;38.40;;;;;;;;;;834305;70;26266;-86
2022/02/10 19:44:22;;;;;;;53.73;37.33;;;;;;;;;;834447;70;26191;-83
2022/02/10 19:45:25;;;;;;;49.70;35.35;;;;;;;;;;834555;70;26308;-86
2022/02/10 19:46:28;;;;;;;56.50;34.70;;;;;;;;;;833366;71;26273;-84
2022/02/10 19:47:32;;;;;;;43.20;32.93;;;;;;;;;;832254;71;26250;-84
2022/02/10 19:48:35;;;;;;;44.25;31.68;;;;;;;;;;832618;71;26590;-83
2022/02/10 19:49:40;;;;;;;44.35;33.23;;;;;;;;;;832385;71;26277;-84
2022/02/10 19:50:43;;;;;;;45.75;32.60;;;;;;;;;;832810;71;26270;-82
2022/02/10 19:51:48;;;;;;;44.08;30.45;;;;;;;;;;831656;71;26865;-83
2022/02/10 19:52:53;;;;;;;41.75;29.50;;;;;;;;;;832612;71;26281;-84
2022/02/10 19:53:56;;;;;;;41.90;29.63;;;;;;;;;;832338;71;26293;-83
2022/02/10 19:55:02;;;;;;;38.90;27.22;;;;;;;;;;832333;71;26285;-82
2022/02/10 19:56:05;;;;;;;35.25;25.32;;;;;;;;;;832048;71;26385;-82
2022/02/10 19:57:08;;;;;;;33.90;25.60;;;;;;;;;;832259;71;26254;-82
2022/02/10 19:58:18;;;;;;;37.58;25.72;;;;;;;;;;832288;71;26379;-82
2022/02/10 19:59:19;;;;;;;38.28;25.30;;;;;;;;;;832173;71;26281;-85
2022/02/10 20:00:26;;;;;;;39.03;25.97;;;;;;;;;;831887;71;26247;-82
2022/02/10 20:01:27;;;;;;;37.00;24.27;;;;;;;;;;831715;71;26355;-84
2022/02/10 20:02:31;;;;;;;35.65;23.40;;;;;;;;;;832447;71;26345;-84
2022/02/10 20:03:38;;;;;;;37.35;23.32;;;;;;;;;;832076;71;26312;-86
2022/02/10 20:04:39;;;;;;;29.05;22.00;;;;;;;;;;832828;71;26211;-82
2022/02/10 20:05:45;;;;;;;30.08;22.30;;;;;;;;;;832564;71;26309;-84
2022/02/10 20:06:50;;;;;;;34.27;24.57;;;;;;;;;;832469;71;26327;-83
2022/02/10 20:07:54;;;;;;;31.25;23.55;;;;;;;;;;831458;71;26270;-82
2022/02/10 20:08:57;;;;;;;31.85;24.55;;;;;;;;;;831750;71;26278;-82
2022/02/10 20:10:00;;;;;;;33.58;25.32;;;;;;;;;;832249;71;26270;-83
2022/02/10 20:11:03;;;;;;;32.33;23.35;;;;;;;;;;832245;71;26777;-83
2022/02/10 20:12:06;;;;;;;31.35;23.77;;;;;;;;;;832888;71;26246;-83
2022/02/10 20:13:29;;;;;;;35.88;24.80;;;;;;;;;;830185;71;26351;-82
2022/02/10 20:14:32;;;;;;;36.25;26.23;;;;;;;;;;832283;71;26745;-83
2022/02/10 20:15:35;;;;;;;36.88;27.30;;;;;;;;;;832095;71;26222;-81
2022/02/10 20:16:38;;;;;;;37.65;26.02;;;;;;;;;;832235;71;26347;-82
2022/02/10 20:17:41;;;;;;;39.10;26.82;;;;;;;;;;832624;71;26335;-83
2022/02/10 20:18:48;;;;;;;35.05;25.45;;;;;;;;;;832373;71;26301;-85
2022/02/10 20:19:48;;;;;;;34.65;25.12;;;;;;;;;;832095;71;26705;-82
2022/02/10 20:20:57;;;;;;;36.40;23.70;;;;;;;;;;831961;71;26270;-85
2022/02/10 20:21:56;;;;;;;34.63;23.60;;;;;;;;;;830436;71;26274;-83
2022/02/10 20:22:59;;;;;;;33.10;23.00;;;;;;;;;;832136;71;26347;-84
2022/02/10 20:24:03;;;;;;;29.10;22.35;;;;;;;;;;828104;71;26336;-82
2022/02/10 20:25:07;;;;;;;31.35;22.22;;;;;;;;;;832169;71;27145;-83
2022/02/10 20:26:11;;;;;;;28.12;21.42;;;;;;;;;;832108;71;26997;-83
2022/02/10 20:27:13;;;;;;;29.72;21.02;;;;;;;;;;832165;71;26493;-84
2022/02/10 20:28:19;;;;;;;28.75;21.68;;;;;;;;;;832163;71;26731;-83
2022/02/10 20:29:20;;;;;;;30.97;22.13;;;;;;;;;;832083;71;26282;-83
2022/02/10 20:30:24;;;;;;;30.70;21.55;;;;;;;;;;832243;71;26219;-83
2022/02/10 20:31:29;;;;;;;30.57;22.70;;;;;;;;;;832327;71;26281;-83
2022/02/10 20:32:32;;;;;;;29.77;22.70;;;;;;;;;;832206;71;26270;-83
2022/02/10 20:33:34;;;;;;;31.52;22.82;;;;;;;;;;832319;71;26278;-82
2022/02/10 20:34:37;;;;;;;30.30;22.02;;;;;;;;;;832298;71;26293;-85
2022/02/10 20:35:43;;;;;;;29.30;22.17;;;;;;;;;;832138;71;26268;-83
2022/02/10 20:36:44;;;;;;;30.97;22.77;;;;;;;;;;831979;71;26716;-81
2022/02/10 20:37:47;;;;;;;27.27;21.40;;;;;;;;;;832159;71;26369;-82
2022/02/10 20:38:55;;;;;;;30.48;21.50;;;;;;;;;;832070;71;26680;-81
2022/02/10 20:39:55;;;;;;;29.30;20.92;;;;;;;;;;831903;71;26234;-83
2022/02/10 20:41:04;;;;;;;28.87;21.52;;;;;;;;;;832129;71;26320;-84
2022/02/10 20:42:10;;;;;;;28.52;21.02;;;;;;;;;;832049;71;27036;-84
2022/02/10 20:43:10;;;;;;;30.17;22.05;;;;;;;;;;831422;71;26388;-83
2022/02/10 20:44:13;;;;;;;31.12;21.93;;;;;;;;;;831904;71;26696;-82
2022/02/10 20:45:15;;;;;;;31.07;22.15;;;;;;;;;;832178;71;26297;-84
2022/02/10 20:46:19;;;;;;;27.40;21.55;;;;;;;;;;832041;71;26294;-84
2022/02/10 20:47:25;;;;;;;30.77;21.20;;;;;;;;;;831963;71;26332;-82